createdAt,value
2018-12-18T00:01:39.165Z,4.26
2018-12-18T00:04:08.257Z,4.05
2018-12-18T00:06:37.090Z,4.12
2018-12-18T00:09:06.902Z,4.05
2018-12-18T00:11:35.848Z,4.11
2018-12-18T00:14:04.676Z,4.03
2018-12-18T00:16:33.955Z,4.13
2018-12-18T00:19:02.884Z,4.07
2018-12-18T00:21:32.017Z,4.02
2018-12-18T00:24:01.220Z,4.00
2018-12-18T00:26:30.149Z,4.08
2018-12-18T00:28:59.327Z,4.04
2018-12-18T00:31:28.223Z,4.06
2018-12-18T00:33:57.008Z,3.98
2018-12-18T00:36:25.924Z,4.05
2018-12-18T00:38:54.866Z,4.06
2018-12-18T00:41:23.801Z,4.05
2018-12-18T00:43:52.745Z,3.98
2018-12-18T00:46:21.671Z,3.96
2018-12-18T00:48:50.613Z,4.05
2018-12-18T00:51:19.459Z,3.89
2018-12-18T00:53:48.381Z,3.91
2018-12-18T00:56:17.341Z,3.94
2018-12-18T00:58:46.213Z,3.95
2018-12-18T01:01:15.036Z,4.04
2018-12-18T01:03:43.863Z,3.94
2018-12-18T01:06:12.766Z,3.90
2018-12-18T01:08:41.740Z,3.85
2018-12-18T01:11:10.646Z,3.89
2018-12-18T01:13:39.479Z,3.96
2018-12-18T01:16:08.304Z,3.89
2018-12-18T01:18:37.142Z,3.83
2018-12-18T01:21:06.560Z,3.74
2018-12-18T01:23:35.892Z,3.98
2018-12-18T01:26:04.869Z,3.93
2018-12-18T01:28:33.773Z,3.87
2018-12-18T01:31:02.725Z,3.87
2018-12-18T01:33:31.721Z,3.88
2018-12-18T01:36:00.669Z,3.99
2018-12-18T01:38:29.749Z,3.88
2018-12-18T01:40:58.630Z,3.85
2018-12-18T01:43:27.571Z,3.99
2018-12-18T01:45:56.489Z,3.98
2018-12-18T01:48:25.317Z,3.91
2018-12-18T01:50:54.670Z,3.82
2018-12-18T01:53:23.469Z,3.88
2018-12-18T01:55:52.276Z,3.84
2018-12-18T01:58:21.197Z,3.96
2018-12-18T02:00:50.017Z,3.84
2018-12-18T02:03:18.933Z,3.79
2018-12-18T02:05:47.896Z,3.88
2018-12-18T02:08:16.870Z,3.92
2018-12-18T02:10:45.729Z,3.89
2018-12-18T02:13:14.633Z,3.94
2018-12-18T02:15:43.506Z,3.90
2018-12-18T02:18:12.332Z,3.97
2018-12-18T02:20:41.253Z,3.85
2018-12-18T02:23:10.120Z,3.89
2018-12-18T02:25:38.932Z,3.89
2018-12-18T02:28:07.869Z,3.94
2018-12-18T02:30:36.731Z,3.80
2018-12-18T02:33:05.569Z,3.91
2018-12-18T02:35:34.512Z,3.83
2018-12-18T02:38:04.141Z,3.88
2018-12-18T02:40:33.069Z,3.88
2018-12-18T02:43:01.897Z,3.87
2018-12-18T02:45:30.814Z,3.81
2018-12-18T02:47:59.656Z,3.84
2018-12-18T02:50:28.634Z,3.86
2018-12-18T02:52:57.560Z,3.95
2018-12-18T02:55:26.397Z,3.90
2018-12-18T02:57:55.707Z,3.90
2018-12-18T03:00:24.642Z,4.03
2018-12-18T03:02:53.438Z,4.03
2018-12-18T03:05:22.389Z,3.84
2018-12-18T03:07:51.313Z,3.95
2018-12-18T03:10:20.133Z,3.87
2018-12-18T03:12:49.065Z,3.81
2018-12-18T03:15:17.891Z,3.86
2018-12-18T03:17:46.940Z,3.87
2018-12-18T03:20:22.518Z,3.85
2018-12-18T03:22:51.460Z,3.85
2018-12-18T03:25:20.429Z,3.94
2018-12-18T03:27:49.351Z,4.00
2018-12-18T03:30:18.287Z,3.71
2018-12-18T03:32:50.042Z,3.84
2018-12-18T03:35:18.950Z,3.80
2018-12-18T03:37:47.885Z,3.82
2018-12-18T03:40:17.390Z,3.92
2018-12-18T03:42:46.374Z,3.88
2018-12-18T03:45:15.396Z,3.88
2018-12-18T03:47:44.372Z,3.88
2018-12-18T03:50:13.292Z,3.78
2018-12-18T03:52:42.214Z,3.87
2018-12-18T03:55:11.034Z,3.82
2018-12-18T03:57:40.489Z,3.70
2018-12-18T04:00:11.178Z,3.65
2018-12-18T04:02:40.154Z,3.69
2018-12-18T04:05:09.575Z,3.75
2018-12-18T04:07:38.628Z,3.86
2018-12-18T04:10:07.919Z,3.92
2018-12-18T04:12:37.888Z,3.92
2018-12-18T04:15:07.277Z,3.93
2018-12-18T04:17:36.359Z,3.82
2018-12-18T04:20:05.411Z,3.79
2018-12-18T04:22:34.353Z,3.76
2018-12-18T04:25:03.997Z,3.78
2018-12-18T04:27:33.889Z,3.70
2018-12-18T04:30:04.196Z,3.71
2018-12-18T04:32:34.230Z,3.56
2018-12-18T04:35:04.882Z,3.71
2018-12-18T04:37:34.838Z,3.72
2018-12-18T04:40:05.481Z,3.63
2018-12-18T04:42:35.181Z,3.55
2018-12-18T04:45:04.327Z,3.48
2018-12-18T04:47:33.315Z,3.55
2018-12-18T04:50:02.120Z,3.63
2018-12-18T04:52:31.066Z,3.61
2018-12-18T04:55:00.100Z,3.72
2018-12-18T04:57:29.124Z,3.70
2018-12-18T04:59:58.218Z,3.70
2018-12-18T05:02:27.118Z,3.61
2018-12-18T05:04:55.941Z,3.64
2018-12-18T05:07:24.826Z,3.79
2018-12-18T05:09:53.709Z,3.75
2018-12-18T05:12:22.640Z,3.54
2018-12-18T05:14:51.509Z,3.66
2018-12-18T05:17:20.458Z,3.50
2018-12-18T05:19:49.509Z,3.63
2018-12-18T05:22:18.549Z,3.55
2018-12-18T05:24:47.404Z,3.56
2018-12-18T05:27:16.333Z,3.48
2018-12-18T05:29:45.178Z,3.49
2018-12-18T05:32:14.366Z,3.48
2018-12-18T05:34:43.195Z,3.41
2018-12-18T05:37:12.279Z,3.46
2018-12-18T05:39:41.275Z,3.63
2018-12-18T05:42:10.208Z,3.42
2018-12-18T05:44:39.004Z,3.27
2018-12-18T05:47:07.938Z,3.46
2018-12-18T05:49:36.800Z,3.36
2018-12-18T05:52:06.097Z,3.21
2018-12-18T05:54:35.182Z,3.41
2018-12-18T05:57:03.994Z,3.29
2018-12-18T05:59:33.017Z,3.14
2018-12-18T06:02:01.821Z,3.36
2018-12-18T06:04:30.763Z,3.32
2018-12-18T06:06:59.680Z,3.21
2018-12-18T06:09:28.528Z,3.28
2018-12-18T06:11:57.345Z,3.23
2018-12-18T06:14:26.308Z,3.26
2018-12-18T06:16:55.215Z,3.25
2018-12-18T06:19:24.041Z,3.27
2018-12-18T06:21:52.995Z,3.35
2018-12-18T06:24:21.989Z,3.36
2018-12-18T06:26:50.946Z,3.24
2018-12-18T06:29:19.850Z,3.27
2018-12-18T06:31:48.806Z,3.30
2018-12-18T06:34:17.656Z,3.29
2018-12-18T06:36:46.506Z,3.44
2018-12-18T06:39:15.474Z,3.21
2018-12-18T06:41:44.375Z,3.26
2018-12-18T06:44:13.181Z,3.31
2018-12-18T06:46:42.864Z,3.22
2018-12-18T06:49:11.685Z,3.24
2018-12-18T06:51:40.683Z,3.18
2018-12-18T06:54:09.644Z,3.16
2018-12-18T06:56:38.465Z,3.04
2018-12-18T06:59:07.333Z,3.08
2018-12-18T07:01:36.161Z,2.97
2018-12-18T07:04:05.217Z,2.93
2018-12-18T07:06:34.085Z,3.07
2018-12-18T07:09:04.461Z,3.17
2018-12-18T07:11:33.468Z,2.96
2018-12-18T07:14:02.307Z,2.92
2018-12-18T07:16:31.357Z,2.89
2018-12-18T07:19:00.325Z,2.91
2018-12-18T07:21:29.181Z,2.92
2018-12-18T07:23:58.108Z,3.07
2018-12-18T07:26:27.145Z,2.83
2018-12-18T07:28:55.945Z,3.21
2018-12-18T07:31:24.901Z,2.93
2018-12-18T07:33:53.728Z,2.93
2018-12-18T07:36:22.530Z,2.89
2018-12-18T07:38:51.425Z,3.20
2018-12-18T07:41:20.350Z,3.11
2018-12-18T07:43:49.283Z,2.89
2018-12-18T07:46:18.786Z,2.85
2018-12-18T07:48:47.798Z,2.78
2018-12-18T07:51:16.612Z,2.85
2018-12-18T07:53:45.433Z,2.69
2018-12-18T07:56:14.461Z,2.82
2018-12-18T07:58:43.397Z,2.85
2018-12-18T08:01:12.459Z,2.95
2018-12-18T08:03:41.297Z,2.67
2018-12-18T08:06:10.259Z,2.69
2018-12-18T08:08:39.192Z,2.77
2018-12-18T08:11:08.014Z,2.70
2018-12-18T08:13:37.050Z,2.57
2018-12-18T08:16:05.968Z,2.73
2018-12-18T08:18:34.913Z,2.70
2018-12-18T08:21:03.891Z,2.84
2018-12-18T08:23:32.716Z,2.73
2018-12-18T08:26:01.532Z,2.82
2018-12-18T08:28:30.584Z,2.73
2018-12-18T08:30:59.455Z,2.73
2018-12-18T08:33:28.362Z,2.79
2018-12-18T08:35:57.378Z,2.85
2018-12-18T08:38:26.197Z,2.92
2018-12-18T08:40:55.016Z,2.83
2018-12-18T08:43:23.961Z,3.15
2018-12-18T08:45:52.806Z,2.78
2018-12-18T08:48:21.867Z,3.03
2018-12-18T08:50:51.199Z,2.85
2018-12-18T08:53:20.013Z,2.78
2018-12-18T08:55:48.981Z,2.81
2018-12-18T08:58:18.013Z,2.79
2018-12-18T09:00:46.991Z,2.73
2018-12-18T09:03:15.966Z,2.87
2018-12-18T09:05:44.978Z,2.88
2018-12-18T09:08:13.999Z,2.95
2018-12-18T09:10:42.875Z,3.10
2018-12-18T09:13:11.793Z,3.00
2018-12-18T09:15:46.417Z,2.81
2018-12-18T09:18:15.411Z,2.69
2018-12-18T09:20:44.391Z,2.73
2018-12-18T09:23:13.448Z,2.84
2018-12-18T09:25:42.506Z,2.92
2018-12-18T09:28:11.408Z,2.91
2018-12-18T09:30:42.708Z,2.95
2018-12-18T09:33:11.911Z,2.98
2018-12-18T09:35:41.051Z,2.86
2018-12-18T09:38:15.581Z,2.93
2018-12-18T09:40:50.201Z,2.91
2018-12-18T09:43:24.703Z,2.90
2018-12-18T09:45:53.641Z,2.84
2018-12-18T09:48:22.565Z,2.91
2018-12-18T09:50:51.472Z,2.87
2018-12-18T09:53:20.389Z,2.82
2018-12-18T09:55:49.508Z,2.83
2018-12-18T09:58:18.508Z,2.71
2018-12-18T10:00:47.582Z,2.72
2018-12-18T10:03:16.476Z,2.77
2018-12-18T10:05:45.540Z,2.85
2018-12-18T10:08:14.518Z,2.87
2018-12-18T10:10:43.555Z,2.87
2018-12-18T10:13:12.804Z,2.86
2018-12-18T10:15:41.924Z,2.73
2018-12-18T10:18:10.764Z,2.81
2018-12-18T10:20:39.927Z,2.90
2018-12-18T10:23:08.832Z,2.79
2018-12-18T10:25:37.665Z,2.85
2018-12-18T10:28:06.749Z,3.07
2018-12-18T10:30:35.652Z,2.90
2018-12-18T10:33:06.156Z,3.03
2018-12-18T10:35:36.646Z,2.96
2018-12-18T10:38:05.769Z,2.89
2018-12-18T10:40:34.672Z,2.93
2018-12-18T10:43:03.709Z,2.91
2018-12-18T10:45:34.134Z,2.75
2018-12-18T10:48:03.056Z,2.76
2018-12-18T10:50:32.022Z,2.69
2018-12-18T10:53:00.940Z,2.87
2018-12-18T10:55:29.808Z,2.87
2018-12-18T10:57:58.717Z,2.95
2018-12-18T11:00:33.028Z,2.92
2018-12-18T11:03:01.930Z,3.02
2018-12-18T11:05:30.959Z,3.05
2018-12-18T11:07:59.817Z,3.00
2018-12-18T11:10:28.740Z,3.02
2018-12-18T11:13:03.146Z,3.09
2018-12-18T11:15:32.114Z,3.05
2018-12-18T11:18:00.937Z,2.98
2018-12-18T11:20:29.867Z,3.08
2018-12-18T11:22:58.700Z,3.20
2018-12-18T11:25:27.681Z,3.01
2018-12-18T11:27:56.513Z,2.98
2018-12-18T11:30:25.341Z,3.17
2018-12-18T11:32:54.281Z,3.16
2018-12-18T11:35:23.230Z,3.07
2018-12-18T11:37:52.200Z,3.12
2018-12-18T11:40:21.145Z,3.19
2018-12-18T11:42:50.148Z,3.12
2018-12-18T11:45:18.972Z,3.02
2018-12-18T11:47:47.891Z,3.06
2018-12-18T11:50:16.823Z,3.03
2018-12-18T11:52:45.952Z,3.07
2018-12-18T11:55:14.766Z,3.04
2018-12-18T11:57:43.604Z,3.02
2018-12-18T12:00:15.444Z,3.05
2018-12-18T12:02:44.533Z,2.90
2018-12-18T12:05:13.373Z,3.08
2018-12-18T12:07:42.287Z,3.11
2018-12-18T12:10:11.329Z,3.21
2018-12-18T12:12:44.094Z,3.11
2018-12-18T12:15:13.541Z,3.11
2018-12-18T12:17:42.555Z,3.05
2018-12-18T12:20:11.501Z,3.20
2018-12-18T12:22:40.620Z,3.20
2018-12-18T12:25:09.609Z,3.02
2018-12-18T12:27:44.818Z,2.93
2018-12-18T12:30:13.808Z,3.28
2018-12-18T12:32:42.724Z,3.20
2018-12-18T12:35:11.725Z,3.41
2018-12-18T12:37:40.861Z,3.13
2018-12-18T12:40:10.205Z,2.89
2018-12-18T12:42:39.104Z,3.11
2018-12-18T12:45:08.154Z,3.13
2018-12-18T12:47:37.381Z,2.94
2018-12-18T12:50:06.644Z,2.85
2018-12-18T12:52:35.740Z,2.91
2018-12-18T12:55:05.221Z,2.94
2018-12-18T12:57:34.134Z,2.89
2018-12-18T13:00:03.410Z,3.09
2018-12-18T13:02:32.333Z,3.00
2018-12-18T13:05:01.270Z,3.23
2018-12-18T13:07:30.294Z,3.11
2018-12-18T13:09:59.164Z,3.07
2018-12-18T13:12:29.445Z,3.07
2018-12-18T13:14:58.684Z,3.07
2018-12-18T13:17:27.628Z,3.05
2018-12-18T13:19:57.605Z,3.10
2018-12-18T13:22:26.572Z,3.18
2018-12-18T13:24:55.721Z,3.03
2018-12-18T13:27:24.949Z,3.06
2018-12-18T13:29:53.947Z,3.09
2018-12-18T13:32:23.045Z,3.10
2018-12-18T13:34:52.130Z,3.09
2018-12-18T13:37:21.162Z,3.06
2018-12-18T13:39:50.213Z,3.08
2018-12-18T13:42:19.156Z,3.00
2018-12-18T13:44:48.472Z,3.12
2018-12-18T13:47:17.774Z,3.00
2018-12-18T13:49:49.560Z,3.25
2018-12-18T13:52:18.805Z,3.19
2018-12-18T13:54:47.837Z,3.05
2018-12-18T13:57:16.944Z,3.17
2018-12-18T13:59:46.149Z,3.10
2018-12-18T14:02:15.570Z,3.10
2018-12-18T14:04:44.563Z,3.14
2018-12-18T14:07:14.360Z,3.18
2018-12-18T14:09:43.245Z,3.21
2018-12-18T14:12:12.256Z,3.20
2018-12-18T14:14:41.393Z,3.23
2018-12-18T14:17:10.320Z,3.19
2018-12-18T14:19:39.188Z,3.19
2018-12-18T14:22:08.816Z,3.12
2018-12-18T14:24:38.103Z,3.15
2018-12-18T14:27:07.134Z,3.07
2018-12-18T14:29:36.149Z,3.17
2018-12-18T14:32:05.924Z,3.09
2018-12-18T14:34:34.773Z,3.06
2018-12-18T14:37:04.028Z,3.11
2018-12-18T14:39:33.264Z,3.02
2018-12-18T14:42:02.727Z,2.91
2018-12-18T14:44:31.837Z,2.93
2018-12-18T14:47:00.644Z,3.07
2018-12-18T14:49:29.833Z,2.89
2018-12-18T14:51:58.756Z,2.91
2018-12-18T14:54:28.600Z,2.88
2018-12-18T14:56:57.920Z,2.85
2018-12-18T14:59:27.026Z,3.02
2018-12-18T15:01:56.590Z,2.92
2018-12-18T15:04:25.663Z,2.89
2018-12-18T15:06:54.789Z,2.98
2018-12-18T15:09:23.825Z,3.07
2018-12-18T15:11:52.749Z,2.96
2018-12-18T15:14:21.798Z,2.98
2018-12-18T15:16:51.155Z,2.99
2018-12-18T15:19:20.185Z,2.92
2018-12-18T15:21:49.233Z,2.97
2018-12-18T15:24:18.235Z,2.81
2018-12-18T15:26:47.423Z,2.90
2018-12-18T15:29:17.078Z,2.92
2018-12-18T15:31:45.909Z,2.86
2018-12-18T15:34:15.207Z,2.93
2018-12-18T15:36:44.318Z,2.86
2018-12-18T15:39:13.345Z,2.87
2018-12-18T15:41:42.760Z,2.88
2018-12-18T15:44:12.513Z,2.77
2018-12-18T15:46:41.781Z,2.86
2018-12-18T15:49:10.716Z,2.86
2018-12-18T15:51:39.746Z,2.82
2018-12-18T15:54:08.686Z,2.84
2018-12-18T15:56:38.125Z,2.88
2018-12-18T15:59:07.743Z,2.88
2018-12-18T16:01:36.981Z,2.94
2018-12-18T16:04:07.207Z,2.92
2018-12-18T16:06:43.940Z,3.00
2018-12-18T16:09:20.949Z,2.94
2018-12-18T16:11:49.853Z,3.01
2018-12-18T16:14:18.775Z,3.07
2018-12-18T16:16:47.978Z,2.90
2018-12-18T16:19:17.789Z,3.07
2018-12-18T16:21:47.029Z,3.18
2018-12-18T16:24:16.252Z,3.09
2018-12-18T16:26:45.287Z,2.92
2018-12-18T16:29:14.198Z,3.06
2018-12-18T16:31:43.805Z,2.89
2018-12-18T16:34:12.864Z,3.06
2018-12-18T16:36:42.141Z,2.90
2018-12-18T16:39:11.259Z,3.14
2018-12-18T16:41:40.255Z,3.11
2018-12-18T16:44:09.155Z,2.84
2018-12-18T16:46:38.109Z,3.05
2018-12-18T16:49:10.091Z,3.09
2018-12-18T16:51:39.519Z,3.09
2018-12-18T16:54:08.575Z,3.01
2018-12-18T16:56:37.857Z,2.94
2018-12-18T16:59:07.077Z,3.01
2018-12-18T17:01:36.669Z,2.83
2018-12-18T17:04:09.176Z,2.90
2018-12-18T17:06:38.213Z,2.80
2018-12-18T17:09:07.253Z,2.91
2018-12-18T17:11:36.168Z,2.85
2018-12-18T17:14:04.975Z,2.75
2018-12-18T17:16:34.349Z,2.53
2018-12-18T17:19:03.595Z,2.28
2018-12-18T17:21:32.444Z,2.26
2018-12-18T17:24:01.494Z,2.56
2018-12-18T17:26:31.281Z,2.28
2018-12-18T17:29:00.223Z,2.23
2018-12-18T17:31:29.742Z,2.07
2018-12-18T17:33:58.721Z,2.40
2018-12-18T17:36:27.945Z,2.08
2018-12-18T17:38:56.864Z,2.31
2018-12-18T17:41:25.879Z,2.46
2018-12-18T17:43:55.144Z,2.37
2018-12-18T17:46:23.994Z,2.24
2018-12-18T17:48:52.959Z,2.21
2018-12-18T17:51:21.783Z,2.21
2018-12-18T17:53:50.849Z,2.32
2018-12-18T17:56:19.757Z,2.11
2018-12-18T17:58:48.663Z,2.05
2018-12-18T18:01:17.697Z,2.27
2018-12-18T18:03:46.725Z,2.13
2018-12-18T18:06:15.777Z,2.12
2018-12-18T18:08:44.717Z,2.06
2018-12-18T18:11:13.746Z,2.16
2018-12-18T18:13:42.581Z,2.43
2018-12-18T18:16:11.505Z,2.19
2018-12-18T18:18:40.634Z,2.03
2018-12-18T18:21:09.462Z,2.11
2018-12-18T18:23:38.601Z,2.23
2018-12-18T18:26:09.125Z,2.34
2018-12-18T18:28:38.645Z,2.09
2018-12-18T18:31:07.671Z,2.13
2018-12-18T18:33:36.900Z,2.08
2018-12-18T18:36:05.854Z,2.11
2018-12-18T18:38:42.261Z,2.09
2018-12-18T18:41:11.086Z,2.14
2018-12-18T18:43:40.290Z,2.08
2018-12-18T18:46:09.209Z,1.97
2018-12-18T18:48:38.190Z,1.90
2018-12-18T18:51:07.172Z,1.90
2018-12-18T18:53:36.650Z,1.77
2018-12-18T18:56:06.264Z,1.96
2018-12-18T18:58:35.075Z,2.12
2018-12-18T19:01:04.248Z,2.19
2018-12-18T19:03:33.171Z,2.12
2018-12-18T19:06:02.657Z,2.16
2018-12-18T19:08:31.691Z,2.23
2018-12-18T19:11:00.676Z,1.98
2018-12-18T19:13:30.494Z,2.14
2018-12-18T19:15:59.533Z,2.30
2018-12-18T19:18:28.697Z,2.19
2018-12-18T19:20:57.661Z,2.00
2018-12-18T19:23:26.818Z,2.27
2018-12-18T19:25:55.668Z,1.89
2018-12-18T19:28:24.593Z,1.89
2018-12-18T19:30:54.005Z,2.04
2018-12-18T19:33:22.979Z,2.08
2018-12-18T19:35:51.885Z,2.05
2018-12-18T19:38:20.797Z,2.09
2018-12-18T19:40:49.841Z,1.84
2018-12-18T19:43:18.661Z,2.07
2018-12-18T19:45:47.628Z,1.93
2018-12-18T19:48:16.596Z,1.95
2018-12-18T19:50:45.617Z,1.84
2018-12-18T19:53:14.646Z,1.99
2018-12-18T19:55:43.581Z,1.94
2018-12-18T19:58:12.504Z,2.05
2018-12-18T20:00:41.413Z,2.18
2018-12-18T20:03:10.336Z,2.24
2018-12-18T20:05:39.277Z,2.21
2018-12-18T20:08:10.167Z,2.25
2018-12-18T20:10:40.181Z,2.11
2018-12-18T20:13:09.093Z,1.96
2018-12-18T20:15:38.177Z,1.94
2018-12-18T20:18:07.109Z,1.90
2018-12-18T20:20:36.034Z,1.80
2018-12-18T20:23:05.057Z,1.97
2018-12-18T20:25:34.277Z,1.89
2018-12-18T20:28:03.217Z,1.96
2018-12-18T20:30:33.356Z,2.14
2018-12-18T20:33:02.813Z,1.89
2018-12-18T20:35:31.993Z,2.09
2018-12-18T20:38:00.883Z,1.91
2018-12-18T20:40:29.790Z,1.94
2018-12-18T20:42:58.761Z,2.15
2018-12-18T20:45:27.677Z,2.13
2018-12-18T20:47:56.678Z,2.09
2018-12-18T20:50:25.729Z,2.03
2018-12-18T20:52:54.666Z,2.00
2018-12-18T20:55:24.006Z,2.00
2018-12-18T20:57:52.817Z,1.98
2018-12-18T21:00:21.829Z,2.17
2018-12-18T21:02:50.821Z,1.97
2018-12-18T21:05:19.629Z,2.09
2018-12-18T21:07:49.288Z,2.31
2018-12-18T21:10:18.286Z,2.18
2018-12-18T21:12:47.286Z,2.18
2018-12-18T21:15:16.305Z,2.18
2018-12-18T21:17:45.219Z,2.22
2018-12-18T21:20:14.230Z,2.10
2018-12-18T21:22:43.209Z,2.13
2018-12-18T21:25:18.754Z,2.21
2018-12-18T21:27:43.064Z,1.93
2018-12-18T21:30:11.937Z,2.13
2018-12-18T21:32:40.846Z,2.06
2018-12-18T21:35:09.969Z,2.02
2018-12-18T21:37:38.894Z,1.99
2018-12-18T21:40:07.917Z,2.13
2018-12-18T21:42:36.957Z,2.00
2018-12-18T21:45:06.128Z,2.07
2018-12-18T21:47:35.149Z,1.98
2018-12-18T21:50:05.576Z,1.81
2018-12-18T21:52:34.468Z,1.81
2018-12-18T21:55:03.445Z,1.85
2018-12-18T21:57:32.358Z,1.78
2018-12-18T22:00:01.239Z,2.05
2018-12-18T22:02:30.219Z,2.02
2018-12-18T22:04:59.144Z,1.82
2018-12-18T22:07:28.057Z,1.97
2018-12-18T22:09:57.364Z,1.82
2018-12-18T22:12:26.141Z,2.03
2018-12-18T22:14:54.928Z,1.73
2018-12-18T22:17:23.817Z,1.89
2018-12-18T22:19:52.742Z,2.01
2018-12-18T22:22:21.616Z,1.74
2018-12-18T22:24:50.425Z,1.90
2018-12-18T22:27:19.326Z,1.79
2018-12-18T22:29:48.257Z,1.60
2018-12-18T22:32:17.092Z,1.69
2018-12-18T22:34:46.009Z,1.90
2018-12-18T22:37:14.973Z,1.58
2018-12-18T22:39:43.902Z,1.74
2018-12-18T22:42:12.919Z,1.43
2018-12-18T22:44:41.943Z,1.73
2018-12-18T22:47:10.854Z,1.93
2018-12-18T22:49:39.910Z,1.76
2018-12-18T22:52:08.718Z,1.72
2018-12-18T22:54:37.657Z,1.83
2018-12-18T22:57:07.085Z,1.71
2018-12-18T22:59:35.950Z,1.69
2018-12-18T23:02:10.703Z,1.74
2018-12-18T23:04:39.779Z,1.55
2018-12-18T23:07:08.799Z,1.50
2018-12-18T23:09:37.629Z,1.73
2018-12-18T23:12:06.471Z,1.77
2018-12-18T23:14:35.509Z,1.76
2018-12-18T23:17:04.788Z,1.65
2018-12-18T23:19:33.735Z,1.54
2018-12-18T23:22:02.829Z,1.49
2018-12-18T23:24:31.932Z,1.63
2018-12-18T23:27:00.846Z,1.48
2018-12-18T23:29:29.680Z,1.50
2018-12-18T23:31:58.709Z,1.75
2018-12-18T23:34:32.931Z,1.59
2018-12-18T23:36:58.802Z,1.62
2018-12-18T23:39:27.755Z,1.51
2018-12-18T23:41:56.866Z,1.68
2018-12-18T23:44:25.893Z,1.61
2018-12-18T23:46:54.807Z,1.69
2018-12-18T23:49:23.650Z,1.71
2018-12-18T23:51:52.702Z,1.58
2018-12-18T23:54:21.512Z,1.60
2018-12-18T23:56:50.449Z,1.58
2018-12-18T23:59:19.464Z,1.50
